createdAt,value
2023-04-03T00:02:28.348Z,100162.66
2023-04-03T00:05:31.527Z,100154.34
2023-04-03T00:08:34.124Z,100162.81
2023-04-03T00:11:37.305Z,100160.78
2023-04-03T00:14:39.926Z,100156.53
2023-04-03T00:17:43.041Z,100158.19
2023-04-03T00:20:45.686Z,100161.66
2023-04-03T00:23:48.852Z,100161.75
2023-04-03T00:26:51.452Z,100164.00
2023-04-03T00:29:54.654Z,100160.84
2023-04-03T00:32:57.366Z,100161.34
2023-04-03T00:36:00.699Z,100171.81
2023-04-03T00:39:04.197Z,100170.03
2023-04-03T00:42:07.679Z,100168.22
2023-04-03T00:45:27.084Z,100174.78
2023-04-03T00:48:48.941Z,100170.81
2023-04-03T00:51:52.090Z,100177.97
2023-04-03T00:54:58.508Z,100176.94
2023-04-03T00:58:02.645Z,100181.59
2023-04-03T01:01:09.553Z,100182.47
2023-04-03T01:04:30.954Z,100178.31
2023-04-03T01:07:35.074Z,100176.44
2023-04-03T01:10:38.238Z,100179.59
2023-04-03T01:13:42.087Z,100182.34
2023-04-03T01:16:54.294Z,100183.19
2023-04-03T01:20:29.361Z,100180.63
2023-04-03T01:23:41.804Z,100181.38
2023-04-03T01:26:45.698Z,100174.41
2023-04-03T01:29:48.945Z,100179.59
2023-04-03T01:32:51.854Z,100167.56
2023-04-03T01:35:54.789Z,100181.38
2023-04-03T01:39:00.339Z,100176.66
2023-04-03T01:42:04.760Z,100180.72
2023-04-03T01:45:08.669Z,100181.66
2023-04-03T01:48:11.609Z,100176.13
2023-04-03T01:51:14.563Z,100184.59
2023-04-03T01:54:17.733Z,100189.00
2023-04-03T01:57:21.841Z,100186.31
2023-04-03T02:00:24.904Z,100199.25
2023-04-03T02:03:27.886Z,100194.06
2023-04-03T02:06:30.897Z,100184.28
2023-04-03T02:09:33.814Z,100190.53
2023-04-03T02:12:36.723Z,100192.06
2023-04-03T02:15:40.600Z,100197.59
2023-04-03T02:18:44.026Z,100195.53
2023-04-03T02:21:46.757Z,100206.94
2023-04-03T02:24:52.736Z,100199.84
2023-04-03T02:27:56.406Z,100204.84
2023-04-03T02:30:59.761Z,100207.69
2023-04-03T02:34:02.641Z,100206.03
2023-04-03T02:37:06.248Z,100207.44
2023-04-03T02:40:09.811Z,100204.75
2023-04-03T02:43:12.923Z,100210.75
2023-04-03T02:46:16.784Z,100201.84
2023-04-03T02:49:20.155Z,100200.06
2023-04-03T02:52:23.307Z,100203.09
2023-04-03T02:55:27.103Z,100212.63
2023-04-03T02:58:30.715Z,100208.59
2023-04-03T03:01:34.441Z,100210.03
2023-04-03T03:04:37.096Z,100213.81
2023-04-03T03:07:40.448Z,100206.44
2023-04-03T03:10:42.940Z,100207.06
2023-04-03T03:13:46.265Z,100207.94
2023-04-03T03:16:48.808Z,100210.94
2023-04-03T03:19:51.937Z,100215.19
2023-04-03T03:22:54.581Z,100208.34
2023-04-03T03:26:01.069Z,100218.47
2023-04-03T03:29:03.711Z,100211.16
2023-04-03T03:32:06.914Z,100213.75
2023-04-03T03:35:09.852Z,100215.69
2023-04-03T03:38:13.113Z,100218.22
2023-04-03T03:41:15.659Z,100225.50
2023-04-03T03:44:19.047Z,100220.31
2023-04-03T03:47:21.700Z,100219.34
2023-04-03T03:50:24.865Z,100216.19
2023-04-03T03:53:27.303Z,100224.47
2023-04-03T03:56:30.913Z,100228.31
2023-04-03T03:59:33.922Z,100223.59
2023-04-03T04:02:37.236Z,100226.41
2023-04-03T04:05:40.480Z,100222.12
2023-04-03T04:08:43.944Z,100227.19
2023-04-03T04:11:47.003Z,100228.69
2023-04-03T04:14:50.316Z,100223.63
2023-04-03T04:17:54.308Z,100225.00
2023-04-03T04:20:57.795Z,100227.03
2023-04-03T04:24:01.611Z,100230.34
2023-04-03T04:27:04.738Z,100228.28
2023-04-03T04:30:08.585Z,100234.88
2023-04-03T04:33:12.370Z,100237.47
2023-04-03T04:36:16.013Z,100236.16
2023-04-03T04:39:19.314Z,100236.09
2023-04-03T04:42:22.432Z,100239.72
2023-04-03T04:45:25.589Z,100246.69
2023-04-03T04:48:29.581Z,100252.53
2023-04-03T04:51:41.114Z,100250.66
2023-04-03T04:54:48.170Z,100246.44
2023-04-03T04:57:51.486Z,100255.44
2023-04-03T05:01:02.016Z,100247.34
2023-04-03T05:04:05.071Z,100254.31
2023-04-03T05:07:08.266Z,100258.03
2023-04-03T05:10:11.776Z,100258.03
2023-04-03T05:13:15.722Z,100260.84
2023-04-03T05:16:19.054Z,100262.69
2023-04-03T05:19:23.105Z,100261.56
2023-04-03T05:22:27.342Z,100262.84
2023-04-03T05:25:31.120Z,100268.03
2023-04-03T05:28:34.659Z,100274.53
2023-04-03T05:31:37.936Z,100272.16
2023-04-03T05:34:41.992Z,100268.34
2023-04-03T05:37:44.974Z,100266.91
2023-04-03T05:40:48.156Z,100269.97
2023-04-03T05:43:51.429Z,100273.19
2023-04-03T05:46:55.630Z,100271.63
2023-04-03T05:49:58.656Z,100264.19
2023-04-03T05:53:04.657Z,100265.16
2023-04-03T05:56:08.165Z,100272.75
2023-04-03T05:59:12.059Z,100270.16
2023-04-03T06:02:19.532Z,100274.00
2023-04-03T06:05:23.801Z,100267.75
2023-04-03T06:08:26.651Z,100267.97
2023-04-03T06:11:29.812Z,100282.50
2023-04-03T06:14:32.343Z,100278.00
2023-04-03T06:17:35.435Z,100286.94
2023-04-03T06:20:38.240Z,100282.34
2023-04-03T06:23:41.768Z,100283.31
2023-04-03T06:26:45.379Z,100292.44
2023-04-03T06:29:49.785Z,100290.38
2023-04-03T06:32:52.995Z,100292.69
2023-04-03T06:35:59.808Z,100280.38
2023-04-03T06:39:04.025Z,100283.06
2023-04-03T06:42:07.144Z,100290.38
2023-04-03T06:45:12.450Z,100296.44
2023-04-03T06:48:15.600Z,100299.25
2023-04-03T06:51:23.471Z,100301.19
2023-04-03T06:54:26.660Z,100308.06
2023-04-03T06:57:29.363Z,100305.72
2023-04-03T07:00:32.459Z,100309.25
2023-04-03T07:03:35.614Z,100311.75
2023-04-03T07:06:38.846Z,100314.25
2023-04-03T07:09:42.649Z,100321.31
2023-04-03T07:12:47.266Z,100325.09
2023-04-03T07:15:50.024Z,100322.50
2023-04-03T07:18:52.988Z,100326.94
2023-04-03T07:21:56.101Z,100326.94
2023-04-03T07:25:00.215Z,100335.00
2023-04-03T07:28:03.042Z,100328.19
2023-04-03T07:31:09.288Z,100325.94
2023-04-03T07:34:12.558Z,100327.09
2023-04-03T07:37:15.796Z,100336.00
2023-04-03T07:40:19.601Z,100331.94
2023-04-03T07:43:23.061Z,100331.31
2023-04-03T07:46:25.852Z,100339.47
2023-04-03T07:49:29.664Z,100330.78
2023-04-03T07:52:32.506Z,100338.78
2023-04-03T07:55:38.540Z,100341.28
2023-04-03T07:58:41.524Z,100347.78
2023-04-03T08:01:44.612Z,100353.53
2023-04-03T08:04:47.635Z,100339.88
2023-04-03T08:07:50.548Z,100344.84
2023-04-03T08:10:54.744Z,100343.53
2023-04-03T08:13:58.213Z,100351.44
2023-04-03T08:17:01.787Z,100353.72
2023-04-03T08:20:09.199Z,100348.66
2023-04-03T08:23:12.321Z,100353.13
2023-04-03T08:26:18.275Z,100348.06
2023-04-03T08:29:22.363Z,100350.13
2023-04-03T08:32:25.587Z,100351.50
2023-04-03T08:35:28.495Z,100352.91
2023-04-03T08:38:32.160Z,100355.97
2023-04-03T08:41:36.802Z,100350.19
2023-04-03T08:44:52.028Z,100349.47
2023-04-03T08:48:16.620Z,100354.12
2023-04-03T08:51:21.662Z,100355.09
2023-04-03T08:54:34.746Z,100350.16
2023-04-03T08:57:40.431Z,100345.44
2023-04-03T09:01:01.928Z,100349.34
2023-04-03T09:04:13.245Z,100348.09
2023-04-03T09:07:27.490Z,100340.28
2023-04-03T09:10:34.233Z,100336.72
2023-04-03T09:13:50.986Z,100333.97
2023-04-03T09:17:00.489Z,100345.56
2023-04-03T09:20:20.611Z,100340.97
2023-04-03T09:23:31.422Z,100339.22
2023-04-03T09:26:52.377Z,100347.31
2023-04-03T09:29:57.209Z,100345.53
2023-04-03T09:33:00.113Z,100353.31
2023-04-03T09:36:02.897Z,100354.75
2023-04-03T09:39:09.892Z,100358.03
2023-04-03T09:42:27.047Z,100353.13
2023-04-03T09:45:36.072Z,100351.91
2023-04-03T09:48:38.979Z,100347.91
2023-04-03T09:51:42.080Z,100340.66
2023-04-03T09:54:44.946Z,100346.03
2023-04-03T09:57:52.150Z,100343.25
2023-04-03T10:00:59.197Z,100333.97
2023-04-03T10:04:19.980Z,100321.75
2023-04-03T10:07:36.169Z,100323.44
2023-04-03T10:10:40.584Z,100338.09
2023-04-03T10:14:00.687Z,100332.13
2023-04-03T10:17:22.852Z,100330.41
2023-04-03T10:20:28.652Z,100340.00
2023-04-03T10:23:51.018Z,100341.66
2023-04-03T10:27:09.342Z,100343.50
2023-04-03T10:30:22.943Z,100348.31
2023-04-03T10:33:53.338Z,100352.84
2023-04-03T10:37:16.407Z,100346.41
2023-04-03T10:40:26.056Z,100342.25
2023-04-03T10:43:43.014Z,100343.41
2023-04-03T10:46:52.111Z,100339.22
2023-04-03T10:50:39.485Z,100342.44
2023-04-03T10:54:18.287Z,100337.56
2023-04-03T10:57:24.879Z,100337.03
2023-04-03T11:00:44.959Z,100336.66
2023-04-03T11:03:52.902Z,100342.75
2023-04-03T11:07:08.550Z,100340.22
2023-04-03T11:10:35.347Z,100344.00
2023-04-03T11:13:56.051Z,100340.53
2023-04-03T11:17:19.070Z,100333.72
2023-04-03T11:20:34.353Z,100324.03
2023-04-03T11:23:49.049Z,100332.88
2023-04-03T11:26:55.624Z,100322.59
2023-04-03T11:29:59.692Z,100318.25
2023-04-03T11:33:36.467Z,100321.03
2023-04-03T11:36:48.253Z,100312.06
2023-04-03T11:40:06.111Z,100314.03
2023-04-03T11:43:23.699Z,100305.56
2023-04-03T11:46:52.434Z,100301.78
2023-04-03T11:50:07.619Z,100300.97
2023-04-03T11:53:13.088Z,100298.31
2023-04-03T11:56:25.055Z,100304.25
2023-04-03T11:59:38.879Z,100304.81
2023-04-03T12:02:53.724Z,100309.59
2023-04-03T12:06:15.999Z,100302.44
2023-04-03T12:09:43.575Z,100307.84
2023-04-03T12:12:58.546Z,100306.69
2023-04-03T12:16:04.516Z,100300.84
2023-04-03T12:19:22.186Z,100290.72
2023-04-03T12:22:25.057Z,100291.16
2023-04-03T12:26:05.838Z,100295.38
2023-04-03T12:29:29.848Z,100302.66
2023-04-03T12:32:49.309Z,100293.25
2023-04-03T12:35:55.151Z,100283.84
2023-04-03T12:39:36.229Z,100293.00
2023-04-03T12:43:02.261Z,100288.19
2023-04-03T12:46:09.568Z,100291.44
2023-04-03T12:49:30.292Z,100285.47
2023-04-03T12:52:54.700Z,100280.69
2023-04-03T12:56:18.604Z,100287.47
2023-04-03T12:59:27.324Z,100283.84
2023-04-03T13:02:32.127Z,100279.03
2023-04-03T13:05:37.218Z,100267.75
2023-04-03T13:08:49.941Z,100269.47
2023-04-03T13:12:04.177Z,100268.63
2023-04-03T13:15:31.633Z,100262.94
2023-04-03T13:18:36.366Z,100261.94
2023-04-03T13:21:39.014Z,100254.88
2023-04-03T13:24:42.537Z,100261.91
2023-04-03T13:27:45.495Z,100252.75
2023-04-03T13:31:06.483Z,100246.97
2023-04-03T13:34:19.726Z,100253.09
2023-04-03T13:37:34.622Z,100248.34
2023-04-03T13:40:53.691Z,100239.94
2023-04-03T13:44:03.520Z,100243.28
2023-04-03T13:47:19.534Z,100243.41
2023-04-03T13:50:26.373Z,100246.38
2023-04-03T13:53:31.982Z,100240.22
2023-04-03T13:56:42.930Z,100231.34
2023-04-03T13:59:45.874Z,100233.91
2023-04-03T14:02:49.785Z,100232.25
2023-04-03T14:05:53.038Z,100223.41
2023-04-03T14:08:55.777Z,100223.87
2023-04-03T14:12:07.750Z,100220.59
2023-04-03T14:15:28.428Z,100217.53
2023-04-03T14:18:31.404Z,100220.03
2023-04-03T14:21:34.517Z,100219.38
2023-04-03T14:24:37.208Z,100210.63
2023-04-03T14:27:42.941Z,100206.06
2023-04-03T14:30:47.521Z,100219.56
2023-04-03T14:33:50.806Z,100215.16
2023-04-03T14:36:53.688Z,100215.62
2023-04-03T14:39:58.373Z,100217.31
2023-04-03T14:43:01.272Z,100214.50
2023-04-03T14:46:04.232Z,100213.47
2023-04-03T14:49:15.772Z,100219.09
2023-04-03T14:52:30.630Z,100222.09
2023-04-03T14:55:33.548Z,100218.38
2023-04-03T14:58:37.564Z,100220.03
2023-04-03T15:01:40.630Z,100225.50
2023-04-03T15:04:43.577Z,100223.16
2023-04-03T15:07:54.746Z,100228.25
2023-04-03T15:11:02.191Z,100216.75
2023-04-03T15:14:05.345Z,100218.72
2023-04-03T15:17:14.510Z,100215.69
2023-04-03T15:20:20.621Z,100217.31
2023-04-03T15:23:27.045Z,100224.19
2023-04-03T15:26:30.519Z,100220.88
2023-04-03T15:29:33.491Z,100223.31
2023-04-03T15:32:36.491Z,100224.69
2023-04-03T15:35:39.769Z,100221.50
2023-04-03T15:38:42.870Z,100218.22
2023-04-03T15:41:46.806Z,100228.25
2023-04-03T15:44:49.784Z,100220.34
2023-04-03T15:47:52.914Z,100227.75
2023-04-03T15:50:57.677Z,100227.88
2023-04-03T15:54:01.328Z,100230.97
2023-04-03T15:57:04.251Z,100238.59
2023-04-03T16:00:08.083Z,100235.31
2023-04-03T16:03:16.439Z,100231.69
2023-04-03T16:06:20.114Z,100232.44
2023-04-03T16:09:23.077Z,100238.47
2023-04-03T16:12:25.879Z,100235.97
2023-04-03T16:15:29.201Z,100235.50
2023-04-03T16:18:32.311Z,100243.22
2023-04-03T16:21:35.373Z,100241.44
2023-04-03T16:24:39.110Z,100241.53
2023-04-03T16:27:42.277Z,100245.69
2023-04-03T16:30:46.635Z,100245.34
2023-04-03T16:33:49.596Z,100259.81
2023-04-03T16:36:53.398Z,100250.06
2023-04-03T16:39:56.359Z,100274.41
2023-04-03T16:42:59.416Z,100272.28
2023-04-03T16:46:03.521Z,100277.34
2023-04-03T16:49:06.621Z,100283.09
2023-04-03T16:52:09.496Z,100289.94
2023-04-03T16:55:12.329Z,100305.94
2023-04-03T16:58:15.784Z,100304.31
2023-04-03T17:01:19.962Z,100308.41
2023-04-03T17:04:22.873Z,100318.87
2023-04-03T17:07:26.557Z,100318.37
2023-04-03T17:10:29.714Z,100339.09
2023-04-03T17:13:34.721Z,100352.97
2023-04-03T17:16:38.519Z,100356.09
2023-04-03T17:19:42.856Z,100359.50
2023-04-03T17:22:46.153Z,100374.59
2023-04-03T17:25:49.034Z,100379.97
2023-04-03T17:28:53.114Z,100388.72
2023-04-03T17:31:56.238Z,100394.09
2023-04-03T17:34:59.152Z,100402.06
2023-04-03T17:38:02.382Z,100410.88
2023-04-03T17:41:07.195Z,100413.97
2023-04-03T17:44:10.144Z,100429.06
2023-04-03T17:47:13.092Z,100438.09
2023-04-03T17:50:16.435Z,100430.91
2023-04-03T17:53:19.222Z,100441.41
2023-04-03T17:56:24.612Z,100440.22
2023-04-03T17:59:28.322Z,100447.75
2023-04-03T18:02:32.406Z,100452.88
2023-04-03T18:05:36.942Z,100469.16
2023-04-03T18:08:45.167Z,100482.97
2023-04-03T18:11:49.772Z,100497.31
2023-04-03T18:14:52.758Z,100513.44
2023-04-03T18:17:57.162Z,100503.84
2023-04-03T18:21:00.073Z,100508.84
2023-04-03T18:24:05.639Z,100506.53
2023-04-03T18:27:18.444Z,100514.63
2023-04-03T18:30:23.067Z,100530.31
2023-04-03T18:33:26.123Z,100533.16
2023-04-03T18:36:29.232Z,100539.75
2023-04-03T18:39:32.456Z,100542.44
2023-04-03T18:42:35.643Z,100536.63
2023-04-03T18:45:38.776Z,100543.88
2023-04-03T18:48:42.128Z,100540.62
2023-04-03T18:51:45.490Z,100540.31
2023-04-03T18:54:48.450Z,100537.03
2023-04-03T18:57:51.285Z,100544.16
2023-04-03T19:00:54.271Z,100543.75
2023-04-03T19:03:57.202Z,100545.81
2023-04-03T19:07:03.881Z,100547.34
2023-04-03T19:10:07.724Z,100544.69
2023-04-03T19:13:10.726Z,100546.56
2023-04-03T19:16:14.174Z,100553.13
2023-04-03T19:19:17.348Z,100543.13
2023-04-03T19:22:20.108Z,100550.84
2023-04-03T19:25:23.423Z,100550.44
2023-04-03T19:28:26.496Z,100553.66
2023-04-03T19:34:38.810Z,100565.28
2023-04-03T19:37:42.624Z,100558.84
2023-04-03T19:40:46.191Z,100554.56
2023-04-03T19:43:51.738Z,100564.59
2023-04-03T19:46:54.708Z,100577.75
2023-04-03T19:49:57.708Z,100572.00
2023-04-03T19:53:01.865Z,100584.97
2023-04-03T19:56:05.382Z,100572.03
2023-04-03T19:59:08.125Z,100576.16
2023-04-03T20:02:11.134Z,100570.25
2023-04-03T20:05:14.468Z,100552.56
2023-04-03T20:08:17.783Z,100557.12
2023-04-03T20:11:21.279Z,100562.56
2023-04-03T20:14:24.057Z,100561.44
2023-04-03T20:17:27.324Z,100566.78
2023-04-03T20:20:29.969Z,100563.13
2023-04-03T20:23:34.045Z,100552.13
2023-04-03T20:26:42.063Z,100560.25
2023-04-03T20:29:45.394Z,100553.03
2023-04-03T20:32:48.487Z,100549.63
2023-04-03T20:35:54.283Z,100552.50
2023-04-03T20:38:57.652Z,100552.78
2023-04-03T20:42:00.824Z,100561.22
2023-04-03T20:45:03.845Z,100561.06
2023-04-03T20:48:07.183Z,100555.87
2023-04-03T20:51:14.415Z,100550.19
2023-04-03T20:54:18.501Z,100547.31
2023-04-03T20:57:21.043Z,100557.50
2023-04-03T21:00:24.475Z,100552.13
2023-04-03T21:03:30.292Z,100550.28
2023-04-03T21:07:11.478Z,100549.72
2023-04-03T21:10:51.624Z,100544.31
2023-04-03T21:14:33.559Z,100548.78
2023-04-03T21:17:36.120Z,100543.75
2023-04-03T21:20:40.193Z,100536.25
2023-04-03T21:23:43.207Z,100527.56
2023-04-03T21:26:46.572Z,100519.88
2023-04-03T21:29:49.137Z,100517.47
2023-04-03T21:32:52.272Z,100521.28
2023-04-03T21:35:58.617Z,100521.19
2023-04-03T21:39:01.778Z,100517.34
2023-04-03T21:42:04.376Z,100526.75
2023-04-03T21:45:08.131Z,100521.84
2023-04-03T21:48:10.717Z,100518.19
2023-04-03T21:51:13.896Z,100504.41
2023-04-03T21:54:16.981Z,100502.00
2023-04-03T21:57:21.109Z,100508.97
2023-04-03T22:00:25.237Z,100507.53
2023-04-03T22:03:28.429Z,100507.44
2023-04-03T22:06:31.278Z,100498.16
2023-04-03T22:09:34.350Z,100501.09
2023-04-03T22:12:36.862Z,100499.88
2023-04-03T22:15:43.439Z,100504.25
2023-04-03T22:18:46.120Z,100494.87
2023-04-03T22:21:49.526Z,100493.47
2023-04-03T22:24:53.958Z,100492.81
2023-04-03T22:27:57.259Z,100497.38
2023-04-03T22:31:04.404Z,100494.25
2023-04-03T22:34:07.791Z,100498.06
2023-04-03T22:37:10.691Z,100485.78
2023-04-03T22:40:13.792Z,100491.03
2023-04-03T22:43:16.394Z,100498.88
2023-04-03T22:46:20.188Z,100495.31
2023-04-03T22:49:22.691Z,100501.91
2023-04-03T22:52:25.892Z,100509.72
2023-04-03T22:55:28.416Z,100512.56
2023-04-03T22:58:31.806Z,100504.25
2023-04-03T23:01:36.011Z,100502.13
2023-04-03T23:04:40.575Z,100505.03
2023-04-03T23:07:43.697Z,100502.91
2023-04-03T23:10:47.103Z,100503.03
2023-04-03T23:13:50.537Z,100500.56
2023-04-03T23:16:53.689Z,100504.50
2023-04-03T23:19:56.218Z,100514.25
2023-04-03T23:22:59.333Z,100517.31
2023-04-03T23:26:02.901Z,100512.91
2023-04-03T23:29:06.133Z,100511.84
2023-04-03T23:32:09.016Z,100515.81
2023-04-03T23:35:12.020Z,100512.81
2023-04-03T23:38:15.482Z,100505.47
2023-04-03T23:41:18.566Z,100497.22
2023-04-03T23:44:21.837Z,100504.78
2023-04-03T23:47:24.986Z,100503.09
2023-04-03T23:50:28.211Z,100502.88
2023-04-03T23:53:31.404Z,100506.56
2023-04-03T23:56:34.041Z,100513.16
2023-04-03T23:59:37.105Z,100510.03
